sensor_id;sensor_type;location;lat;lon;timestamp;temperature;humidity
22299;DHT22;11317;51.072;17.036;2022-08-19T00:01:20;24.80;1.00
22299;DHT22;11317;51.072;17.036;2022-08-19T00:03:46;24.80;1.00
22299;DHT22;11317;51.072;17.036;2022-08-19T00:06:12;25.00;1.00
22299;DHT22;11317;51.072;17.036;2022-08-19T00:08:38;24.60;1.00
22299;DHT22;11317;51.072;17.036;2022-08-19T00:11:03;24.70;1.00
22299;DHT22;11317;51.072;17.036;2022-08-19T00:13:29;24.60;1.00
22299;DHT22;11317;51.072;17.036;2022-08-19T00:15:56;24.60;1.00
22299;DHT22;11317;51.072;17.036;2022-08-19T00:20:50;24.50;58.20
22299;DHT22;11317;51.072;17.036;2022-08-19T00:30:33;24.40;99.90
22299;DHT22;11317;51.072;17.036;2022-08-19T00:35:25;24.30;99.90
22299;DHT22;11317;51.072;17.036;2022-08-19T00:37:53;23.80;1.00
22299;DHT22;11317;51.072;17.036;2022-08-19T00:40:19;24.20;1.00
22299;DHT22;11317;51.072;17.036;2022-08-19T00:45:17;24.10;99.90
22299;DHT22;11317;51.072;17.036;2022-08-19T00:47:44;24.10;99.90
22299;DHT22;11317;51.072;17.036;2022-08-19T00:50:13;24.10;99.90
22299;DHT22;11317;51.072;17.036;2022-08-19T00:52:43;24.10;1.00
22299;DHT22;11317;51.072;17.036;2022-08-19T00:55:14;24.10;1.00
22299;DHT22;11317;51.072;17.036;2022-08-19T00:57:46;24.20;1.00
22299;DHT22;11317;51.072;17.036;2022-08-19T01:00:15;24.10;1.00
22299;DHT22;11317;51.072;17.036;2022-08-19T01:02:42;24.20;99.90
22299;DHT22;11317;51.072;17.036;2022-08-19T01:05:12;24.00;1.00
22299;DHT22;11317;51.072;17.036;2022-08-19T01:07:40;23.90;1.00
22299;DHT22;11317;51.072;17.036;2022-08-19T01:10:09;23.80;1.00
22299;DHT22;11317;51.072;17.036;2022-08-19T01:12:36;23.70;99.90
22299;DHT22;11317;51.072;17.036;2022-08-19T01:15:04;23.70;1.00
22299;DHT22;11317;51.072;17.036;2022-08-19T01:17:30;23.10;1.00
22299;DHT22;11317;51.072;17.036;2022-08-19T01:19:56;23.90;1.00
22299;DHT22;11317;51.072;17.036;2022-08-19T01:22:31;23.70;1.00
22299;DHT22;11317;51.072;17.036;2022-08-19T01:25:00;23.70;99.90
22299;DHT22;11317;51.072;17.036;2022-08-19T01:27:26;23.40;1.00
22299;DHT22;11317;51.072;17.036;2022-08-19T01:37:13;23.20;1.00
22299;DHT22;11317;51.072;17.036;2022-08-19T01:39:42;23.40;1.00
22299;DHT22;11317;51.072;17.036;2022-08-19T01:42:09;23.40;1.00
22299;DHT22;11317;51.072;17.036;2022-08-19T01:47:03;23.30;1.00
22299;DHT22;11317;51.072;17.036;2022-08-19T01:49:29;25.20;99.90
22299;DHT22;11317;51.072;17.036;2022-08-19T01:51:55;23.00;1.00
22299;DHT22;11317;51.072;17.036;2022-08-19T01:54:22;23.20;99.90
22299;DHT22;11317;51.072;17.036;2022-08-19T01:56:50;22.60;1.00
22299;DHT22;11317;51.072;17.036;2022-08-19T01:59:19;22.90;1.00
22299;DHT22;11317;51.072;17.036;2022-08-19T02:01:46;23.00;1.00
22299;DHT22;11317;51.072;17.036;2022-08-19T02:06:38;23.00;23.80
22299;DHT22;11317;51.072;17.036;2022-08-19T02:09:06;22.80;99.90
22299;DHT22;11317;51.072;17.036;2022-08-19T02:11:33;22.80;99.90
22299;DHT22;11317;51.072;17.036;2022-08-19T02:14:00;22.60;1.00
22299;DHT22;11317;51.072;17.036;2022-08-19T02:16:28;22.70;1.00
22299;DHT22;11317;51.072;17.036;2022-08-19T02:21:22;22.80;99.90
22299;DHT22;11317;51.072;17.036;2022-08-19T02:26:14;22.40;1.00
22299;DHT22;11317;51.072;17.036;2022-08-19T02:28:41;22.60;99.90
22299;DHT22;11317;51.072;17.036;2022-08-19T02:31:18;22.60;1.00
22299;DHT22;11317;51.072;17.036;2022-08-19T02:33:45;22.40;1.00
22299;DHT22;11317;51.072;17.036;2022-08-19T02:36:11;22.30;1.00
22299;DHT22;11317;51.072;17.036;2022-08-19T02:41:07;21.90;99.90
22299;DHT22;11317;51.072;17.036;2022-08-19T02:46:19;22.40;99.90
22299;DHT22;11317;51.072;17.036;2022-08-19T02:48:50;22.60;99.90
22299;DHT22;11317;51.072;17.036;2022-08-19T02:51:19;22.30;99.90
22299;DHT22;11317;51.072;17.036;2022-08-19T03:06:06;22.40;99.90
22299;DHT22;11317;51.072;17.036;2022-08-19T03:13:24;22.00;1.00
22299;DHT22;11317;51.072;17.036;2022-08-19T03:18:16;21.90;1.00
22299;DHT22;11317;51.072;17.036;2022-08-19T03:20:50;21.50;1.00
22299;DHT22;11317;51.072;17.036;2022-08-19T03:25:47;22.00;1.00
22299;DHT22;11317;51.072;17.036;2022-08-19T03:28:14;21.70;1.00
22299;DHT22;11317;51.072;17.036;2022-08-19T03:30:41;22.10;1.00
22299;DHT22;11317;51.072;17.036;2022-08-19T03:33:08;21.60;1.00
22299;DHT22;11317;51.072;17.036;2022-08-19T03:35:34;21.90;1.00
22299;DHT22;11317;51.072;17.036;2022-08-19T03:38:04;21.80;1.00
22299;DHT22;11317;51.072;17.036;2022-08-19T03:40:31;21.50;1.00
22299;DHT22;11317;51.072;17.036;2022-08-19T03:45:23;21.60;1.00
22299;DHT22;11317;51.072;17.036;2022-08-19T03:50:15;21.60;1.00
22299;DHT22;11317;51.072;17.036;2022-08-19T03:55:07;21.40;1.00
22299;DHT22;11317;51.072;17.036;2022-08-19T03:57:34;21.40;1.00
22299;DHT22;11317;51.072;17.036;2022-08-19T04:00:00;21.30;1.00
22299;DHT22;11317;51.072;17.036;2022-08-19T04:04:53;21.00;1.00
22299;DHT22;11317;51.072;17.036;2022-08-19T04:07:22;21.20;1.00
22299;DHT22;11317;51.072;17.036;2022-08-19T04:09:48;21.00;1.00
22299;DHT22;11317;51.072;17.036;2022-08-19T04:12:14;21.10;1.00
22299;DHT22;11317;51.072;17.036;2022-08-19T04:14:40;21.40;1.00
22299;DHT22;11317;51.072;17.036;2022-08-19T04:17:06;21.20;1.00
22299;DHT22;11317;51.072;17.036;2022-08-19T04:19:34;20.90;1.00
22299;DHT22;11317;51.072;17.036;2022-08-19T04:26:52;21.10;1.00
22299;DHT22;11317;51.072;17.036;2022-08-19T04:29:21;21.50;1.00
22299;DHT22;11317;51.072;17.036;2022-08-19T04:31:48;21.60;1.00
22299;DHT22;11317;51.072;17.036;2022-08-19T04:34:16;21.50;1.00
22299;DHT22;11317;51.072;17.036;2022-08-19T04:36:43;21.80;1.00
22299;DHT22;11317;51.072;17.036;2022-08-19T04:39:14;21.80;1.00
22299;DHT22;11317;51.072;17.036;2022-08-19T04:41:40;21.60;1.00
22299;DHT22;11317;51.072;17.036;2022-08-19T04:49:19;21.70;1.00
22299;DHT22;11317;51.072;17.036;2022-08-19T04:51:47;21.60;1.00
22299;DHT22;11317;51.072;17.036;2022-08-19T04:54:14;21.80;1.00
22299;DHT22;11317;51.072;17.036;2022-08-19T04:56:40;21.70;1.00
22299;DHT22;11317;51.072;17.036;2022-08-19T04:59:06;21.90;1.00
22299;DHT22;11317;51.072;17.036;2022-08-19T05:04:01;21.50;1.00
22299;DHT22;11317;51.072;17.036;2022-08-19T05:09:00;22.10;1.00
22299;DHT22;11317;51.072;17.036;2022-08-19T05:11:32;22.30;1.00
22299;DHT22;11317;51.072;17.036;2022-08-19T05:16:25;22.30;1.00
22299;DHT22;11317;51.072;17.036;2022-08-19T05:18:51;23.00;1.00
22299;DHT22;11317;51.072;17.036;2022-08-19T05:21:36;22.30;1.00
22299;DHT22;11317;51.072;17.036;2022-08-19T05:24:26;22.30;1.00
22299;DHT22;11317;51.072;17.036;2022-08-19T05:27:01;22.40;1.00
22299;DHT22;11317;51.072;17.036;2022-08-19T05:29:28;22.80;1.00
22299;DHT22;11317;51.072;17.036;2022-08-19T05:34:22;22.70;1.00
22299;DHT22;11317;51.072;17.036;2022-08-19T05:36:51;22.80;1.00
22299;DHT22;11317;51.072;17.036;2022-08-19T05:39:23;22.90;1.00
22299;DHT22;11317;51.072;17.036;2022-08-19T05:41:53;23.00;1.00
22299;DHT22;11317;51.072;17.036;2022-08-19T05:44:20;23.10;1.00
22299;DHT22;11317;51.072;17.036;2022-08-19T05:46:47;23.30;1.00
22299;DHT22;11317;51.072;17.036;2022-08-19T05:49:14;23.20;1.00
22299;DHT22;11317;51.072;17.036;2022-08-19T05:54:07;23.30;99.90
22299;DHT22;11317;51.072;17.036;2022-08-19T05:56:34;23.70;99.90
22299;DHT22;11317;51.072;17.036;2022-08-19T05:59:07;23.50;99.90
22299;DHT22;11317;51.072;17.036;2022-08-19T06:01:38;23.50;99.90
22299;DHT22;11317;51.072;17.036;2022-08-19T06:04:04;23.20;99.90
22299;DHT22;11317;51.072;17.036;2022-08-19T06:06:29;23.60;1.00
22299;DHT22;11317;51.072;17.036;2022-08-19T06:11:24;23.80;99.90
22299;DHT22;11317;51.072;17.036;2022-08-19T06:13:52;23.90;1.00
22299;DHT22;11317;51.072;17.036;2022-08-19T06:16:22;24.20;1.00
22299;DHT22;11317;51.072;17.036;2022-08-19T06:18:56;23.70;99.90
22299;DHT22;11317;51.072;17.036;2022-08-19T06:21:24;24.20;1.00
22299;DHT22;11317;51.072;17.036;2022-08-19T06:23:51;24.30;1.00
22299;DHT22;11317;51.072;17.036;2022-08-19T06:26:19;24.50;1.00
22299;DHT22;11317;51.072;17.036;2022-08-19T06:31:15;24.70;1.00
22299;DHT22;11317;51.072;17.036;2022-08-19T06:33:42;25.20;99.90
22299;DHT22;11317;51.072;17.036;2022-08-19T06:36:17;25.50;1.00
22299;DHT22;11317;51.072;17.036;2022-08-19T06:46:02;26.60;1.00
22299;DHT22;11317;51.072;17.036;2022-08-19T06:48:29;26.90;1.00
22299;DHT22;11317;51.072;17.036;2022-08-19T06:55:47;28.40;1.00
22299;DHT22;11317;51.072;17.036;2022-08-19T07:05:32;30.30;1.00
22299;DHT22;11317;51.072;17.036;2022-08-19T07:12:50;30.10;1.00
22299;DHT22;11317;51.072;17.036;2022-08-19T07:17:42;32.00;1.00
22299;DHT22;11317;51.072;17.036;2022-08-19T07:20:09;33.20;99.90
22299;DHT22;11317;51.072;17.036;2022-08-19T07:25:02;35.30;99.90
22299;DHT22;11317;51.072;17.036;2022-08-19T07:27:29;35.50;99.90
22299;DHT22;11317;51.072;17.036;2022-08-19T07:29:54;35.90;99.90
22299;DHT22;11317;51.072;17.036;2022-08-19T07:32:20;37.20;99.90
22299;DHT22;11317;51.072;17.036;2022-08-19T07:37:12;37.40;99.90
22299;DHT22;11317;51.072;17.036;2022-08-19T07:39:38;38.40;99.90
22299;DHT22;11317;51.072;17.036;2022-08-19T07:42:08;38.40;99.90
22299;DHT22;11317;51.072;17.036;2022-08-19T07:44:35;40.30;99.90
22299;DHT22;11317;51.072;17.036;2022-08-19T07:47:02;39.90;99.90
22299;DHT22;11317;51.072;17.036;2022-08-19T07:49:28;39.90;99.90
22299;DHT22;11317;51.072;17.036;2022-08-19T07:52:23;40.60;99.90
22299;DHT22;11317;51.072;17.036;2022-08-19T07:57:16;40.00;99.90
22299;DHT22;11317;51.072;17.036;2022-08-19T07:59:42;40.20;99.90
22299;DHT22;11317;51.072;17.036;2022-08-19T08:02:08;40.90;99.90
22299;DHT22;11317;51.072;17.036;2022-08-19T08:04:37;40.00;99.90
22299;DHT22;11317;51.072;17.036;2022-08-19T08:07:26;41.30;99.90
22299;DHT22;11317;51.072;17.036;2022-08-19T08:10:10;39.80;99.90
22299;DHT22;11317;51.072;17.036;2022-08-19T08:12:39;40.00;99.90
22299;DHT22;11317;51.072;17.036;2022-08-19T08:15:15;40.50;99.90
22299;DHT22;11317;51.072;17.036;2022-08-19T08:17:44;40.90;99.90
22299;DHT22;11317;51.072;17.036;2022-08-19T08:20:11;40.00;99.90
22299;DHT22;11317;51.072;17.036;2022-08-19T08:22:37;39.20;99.90
22299;DHT22;11317;51.072;17.036;2022-08-19T08:25:26;39.70;99.90
22299;DHT22;11317;51.072;17.036;2022-08-19T08:27:55;39.80;99.90
22299;DHT22;11317;51.072;17.036;2022-08-19T08:30:26;39.60;99.90
22299;DHT22;11317;51.072;17.036;2022-08-19T08:32:52;40.00;99.90
22299;DHT22;11317;51.072;17.036;2022-08-19T08:35:20;40.60;99.90
22299;DHT22;11317;51.072;17.036;2022-08-19T08:37:51;40.80;99.90
22299;DHT22;11317;51.072;17.036;2022-08-19T08:43:03;38.30;99.90
22299;DHT22;11317;51.072;17.036;2022-08-19T08:45:33;36.80;95.70
22299;DHT22;11317;51.072;17.036;2022-08-19T08:48:18;37.50;99.90
22299;DHT22;11317;51.072;17.036;2022-08-19T08:50:45;38.60;99.90
22299;DHT22;11317;51.072;17.036;2022-08-19T08:53:16;39.40;94.70
22299;DHT22;11317;51.072;17.036;2022-08-19T08:55:42;39.30;91.10
22299;DHT22;11317;51.072;17.036;2022-08-19T08:58:15;40.60;99.90
22299;DHT22;11317;51.072;17.036;2022-08-19T09:00:47;41.20;99.90
22299;DHT22;11317;51.072;17.036;2022-08-19T09:03:25;41.80;99.90
22299;DHT22;11317;51.072;17.036;2022-08-19T09:06:20;42.40;99.90
22299;DHT22;11317;51.072;17.036;2022-08-19T09:11:41;42.50;99.90
22299;DHT22;11317;51.072;17.036;2022-08-19T09:19:11;42.80;61.10
22299;DHT22;11317;51.072;17.036;2022-08-19T09:21:37;43.10;78.00
22299;DHT22;11317;51.072;17.036;2022-08-19T09:24:04;43.40;77.30
22299;DHT22;11317;51.072;17.036;2022-08-19T09:26:31;43.10;72.10
22299;DHT22;11317;51.072;17.036;2022-08-19T09:28:58;43.20;73.60
22299;DHT22;11317;51.072;17.036;2022-08-19T09:31:27;43.30;73.90
22299;DHT22;11317;51.072;17.036;2022-08-19T09:33:53;43.80;76.70
22299;DHT22;11317;51.072;17.036;2022-08-19T09:36:24;47.10;89.60
22299;DHT22;11317;51.072;17.036;2022-08-19T09:38:52;44.30;44.40
22299;DHT22;11317;51.072;17.036;2022-08-19T09:41:20;44.30;69.60
22299;DHT22;11317;51.072;17.036;2022-08-19T09:43:49;44.70;43.10
22299;DHT22;11317;51.072;17.036;2022-08-19T09:46:18;44.00;99.90
22299;DHT22;11317;51.072;17.036;2022-08-19T09:48:47;43.60;41.40
22299;DHT22;11317;51.072;17.036;2022-08-19T09:51:16;43.60;61.60
22299;DHT22;11317;51.072;17.036;2022-08-19T09:53:46;42.80;60.80
22299;DHT22;11317;51.072;17.036;2022-08-19T09:56:12;42.60;61.70
22299;DHT22;11317;51.072;17.036;2022-08-19T09:58:39;43.20;61.20
22299;DHT22;11317;51.072;17.036;2022-08-19T10:01:06;45.30;99.90
22299;DHT22;11317;51.072;17.036;2022-08-19T10:03:34;45.80;34.00
22299;DHT22;11317;51.072;17.036;2022-08-19T10:06:02;45.70;99.90
22299;DHT22;11317;51.072;17.036;2022-08-19T10:08:31;46.00;29.00
22299;DHT22;11317;51.072;17.036;2022-08-19T10:10:59;46.00;46.80
22299;DHT22;11317;51.072;17.036;2022-08-19T10:13:28;46.50;24.30
22299;DHT22;11317;51.072;17.036;2022-08-19T10:16:03;46.90;21.90
22299;DHT22;11317;51.072;17.036;2022-08-19T10:18:29;46.10;99.90
22299;DHT22;11317;51.072;17.036;2022-08-19T10:21:08;45.90;20.50
22299;DHT22;11317;51.072;17.036;2022-08-19T10:23:35;45.20;46.90
22299;DHT22;11317;51.072;17.036;2022-08-19T10:26:03;45.10;35.10
22299;DHT22;11317;51.072;17.036;2022-08-19T10:28:34;44.90;99.90
22299;DHT22;11317;51.072;17.036;2022-08-19T10:31:08;45.30;35.70
22299;DHT22;11317;51.072;17.036;2022-08-19T10:33:35;44.90;33.80
22299;DHT22;11317;51.072;17.036;2022-08-19T10:36:11;43.60;44.90
22299;DHT22;11317;51.072;17.036;2022-08-19T10:38:37;43.30;99.90
22299;DHT22;11317;51.072;17.036;2022-08-19T10:41:23;44.30;99.90
22299;DHT22;11317;51.072;17.036;2022-08-19T10:43:54;43.70;99.90
22299;DHT22;11317;51.072;17.036;2022-08-19T10:46:22;44.70;99.90
22299;DHT22;11317;51.072;17.036;2022-08-19T10:48:49;44.30;22.10
22299;DHT22;11317;51.072;17.036;2022-08-19T10:51:15;44.20;99.90
22299;DHT22;11317;51.072;17.036;2022-08-19T10:54:00;44.70;20.70
22299;DHT22;11317;51.072;17.036;2022-08-19T10:56:27;44.50;36.80
22299;DHT22;11317;51.072;17.036;2022-08-19T10:59:12;44.50;32.90
22299;DHT22;11317;51.072;17.036;2022-08-19T11:01:41;44.00;30.10
22299;DHT22;11317;51.072;17.036;2022-08-19T11:04:07;43.50;31.00
22299;DHT22;11317;51.072;17.036;2022-08-19T11:06:40;42.70;33.90
22299;DHT22;11317;51.072;17.036;2022-08-19T11:09:07;40.50;99.90
22299;DHT22;11317;51.072;17.036;2022-08-19T11:14:11;39.30;99.90
22299;DHT22;11317;51.072;17.036;2022-08-19T11:19:05;38.40;99.90
22299;DHT22;11317;51.072;17.036;2022-08-19T11:21:35;38.40;99.90
22299;DHT22;11317;51.072;17.036;2022-08-19T11:24:05;38.10;35.80
22299;DHT22;11317;51.072;17.036;2022-08-19T11:26:32;37.80;35.90
22299;DHT22;11317;51.072;17.036;2022-08-19T11:28:59;37.10;36.20
22299;DHT22;11317;51.072;17.036;2022-08-19T11:31:30;36.40;99.90
22299;DHT22;11317;51.072;17.036;2022-08-19T11:33:58;35.70;99.90
22299;DHT22;11317;51.072;17.036;2022-08-19T11:36:25;36.20;38.60
22299;DHT22;11317;51.072;17.036;2022-08-19T11:41:19;35.70;41.00
22299;DHT22;11317;51.072;17.036;2022-08-19T11:43:44;35.60;99.90
22299;DHT22;11317;51.072;17.036;2022-08-19T11:46:12;35.40;99.90
22299;DHT22;11317;51.072;17.036;2022-08-19T11:51:08;35.50;44.30
22299;DHT22;11317;51.072;17.036;2022-08-19T11:53:35;35.40;42.00
22299;DHT22;11317;51.072;17.036;2022-08-19T11:56:02;35.70;42.80
22299;DHT22;11317;51.072;17.036;2022-08-19T11:58:29;36.00;99.90
22299;DHT22;11317;51.072;17.036;2022-08-19T12:00:54;35.80;99.90
22299;DHT22;11317;51.072;17.036;2022-08-19T12:08:13;36.30;35.10
22299;DHT22;11317;51.072;17.036;2022-08-19T12:10:39;36.40;43.60
22299;DHT22;11317;51.072;17.036;2022-08-19T12:15:37;36.40;99.90
22299;DHT22;11317;51.072;17.036;2022-08-19T12:18:04;36.40;39.80
22299;DHT22;11317;51.072;17.036;2022-08-19T12:25:22;35.30;99.90
22299;DHT22;11317;51.072;17.036;2022-08-19T12:27:47;34.90;99.90
22299;DHT22;11317;51.072;17.036;2022-08-19T12:32:40;34.90;99.90
22299;DHT22;11317;51.072;17.036;2022-08-19T12:35:06;34.80;45.00
22299;DHT22;11317;51.072;17.036;2022-08-19T12:37:34;34.60;99.90
22299;DHT22;11317;51.072;17.036;2022-08-19T12:40:00;34.40;99.90
22299;DHT22;11317;51.072;17.036;2022-08-19T12:47:18;34.40;99.90
22299;DHT22;11317;51.072;17.036;2022-08-19T12:49:44;34.90;91.20
22299;DHT22;11317;51.072;17.036;2022-08-19T12:52:11;33.70;99.90
22299;DHT22;11317;51.072;17.036;2022-08-19T12:54:40;34.60;99.90
22299;DHT22;11317;51.072;17.036;2022-08-19T12:57:07;34.20;99.90
22299;DHT22;11317;51.072;17.036;2022-08-19T12:59:37;34.30;47.70
22299;DHT22;11317;51.072;17.036;2022-08-19T13:02:05;34.40;50.70
22299;DHT22;11317;51.072;17.036;2022-08-19T13:04:32;34.50;99.90
22299;DHT22;11317;51.072;17.036;2022-08-19T13:07:00;33.80;99.90
22299;DHT22;11317;51.072;17.036;2022-08-19T13:31:41;34.50;51.00
22299;DHT22;11317;51.072;17.036;2022-08-19T13:34:32;34.40;52.20
22299;DHT22;11317;51.072;17.036;2022-08-19T13:37:00;36.50;67.00
22299;DHT22;11317;51.072;17.036;2022-08-19T13:39:31;34.20;52.50
22299;DHT22;11317;51.072;17.036;2022-08-19T13:44:27;34.30;96.40
22299;DHT22;11317;51.072;17.036;2022-08-19T13:46:55;34.00;99.90
22299;DHT22;11317;51.072;17.036;2022-08-19T13:49:25;34.10;99.90
22299;DHT22;11317;51.072;17.036;2022-08-19T13:59:12;34.80;99.90
22299;DHT22;11317;51.072;17.036;2022-08-19T14:01:38;34.20;51.70
22299;DHT22;11317;51.072;17.036;2022-08-19T14:04:05;34.10;53.40
22299;DHT22;11317;51.072;17.036;2022-08-19T14:18:42;33.60;56.10
22299;DHT22;11317;51.072;17.036;2022-08-19T14:21:17;33.60;56.40
22299;DHT22;11317;51.072;17.036;2022-08-19T14:23:46;33.80;99.90
22299;DHT22;11317;51.072;17.036;2022-08-19T14:26:15;33.40;63.70
22299;DHT22;11317;51.072;17.036;2022-08-19T14:28:42;33.30;64.00
22299;DHT22;11317;51.072;17.036;2022-08-19T14:31:12;33.50;99.90
22299;DHT22;11317;51.072;17.036;2022-08-19T14:36:06;33.00;95.00
22299;DHT22;11317;51.072;17.036;2022-08-19T14:41:21;32.70;73.90
22299;DHT22;11317;51.072;17.036;2022-08-19T14:43:50;32.60;77.50
22299;DHT22;11317;51.072;17.036;2022-08-19T14:46:19;32.60;79.70
22299;DHT22;11317;51.072;17.036;2022-08-19T14:48:46;32.40;82.80
22299;DHT22;11317;51.072;17.036;2022-08-19T14:53:38;32.10;99.90
22299;DHT22;11317;51.072;17.036;2022-08-19T14:56:09;32.20;85.10
22299;DHT22;11317;51.072;17.036;2022-08-19T15:01:00;31.70;99.90
22299;DHT22;11317;51.072;17.036;2022-08-19T15:03:26;32.00;90.20
22299;DHT22;11317;51.072;17.036;2022-08-19T15:08:18;31.70;99.90
22299;DHT22;11317;51.072;17.036;2022-08-19T15:10:44;32.00;91.40
22299;DHT22;11317;51.072;17.036;2022-08-19T15:13:11;32.00;99.90
22299;DHT22;11317;51.072;17.036;2022-08-19T15:15:36;32.10;99.90
22299;DHT22;11317;51.072;17.036;2022-08-19T15:18:04;32.40;99.90
22299;DHT22;11317;51.072;17.036;2022-08-19T15:22:56;31.80;99.90
22299;DHT22;11317;51.072;17.036;2022-08-19T15:27:49;31.70;99.90
22299;DHT22;11317;51.072;17.036;2022-08-19T15:30:26;31.50;99.90
22299;DHT22;11317;51.072;17.036;2022-08-19T15:35:21;31.40;99.90
22299;DHT22;11317;51.072;17.036;2022-08-19T15:37:51;31.50;99.90
22299;DHT22;11317;51.072;17.036;2022-08-19T15:40:18;31.00;99.90
22299;DHT22;11317;51.072;17.036;2022-08-19T15:45:12;30.90;99.90
22299;DHT22;11317;51.072;17.036;2022-08-19T15:47:39;31.00;99.90
22299;DHT22;11317;51.072;17.036;2022-08-19T15:50:08;30.70;99.90
22299;DHT22;11317;51.072;17.036;2022-08-19T16:02:38;29.70;1.00
22299;DHT22;11317;51.072;17.036;2022-08-19T16:05:25;29.60;1.00
22299;DHT22;11317;51.072;17.036;2022-08-19T16:10:38;29.50;99.90
22299;DHT22;11317;51.072;17.036;2022-08-19T16:13:04;29.50;99.90
22299;DHT22;11317;51.072;17.036;2022-08-19T16:15:31;29.30;99.90
22299;DHT22;11317;51.072;17.036;2022-08-19T16:17:58;29.30;99.90
22299;DHT22;11317;51.072;17.036;2022-08-19T16:22:53;29.50;1.00
22299;DHT22;11317;51.072;17.036;2022-08-19T16:30:11;29.70;1.00
22299;DHT22;11317;51.072;17.036;2022-08-19T16:32:42;29.10;1.00
22299;DHT22;11317;51.072;17.036;2022-08-19T16:37:35;30.10;1.00
22299;DHT22;11317;51.072;17.036;2022-08-19T16:54:40;29.30;1.00
22299;DHT22;11317;51.072;17.036;2022-08-19T16:57:06;28.60;1.00
22299;DHT22;11317;51.072;17.036;2022-08-19T16:59:33;28.80;1.00
22299;DHT22;11317;51.072;17.036;2022-08-19T17:16:36;28.70;1.00
22299;DHT22;11317;51.072;17.036;2022-08-19T17:19:04;28.70;1.00
22299;DHT22;11317;51.072;17.036;2022-08-19T17:21:32;28.60;1.00
22299;DHT22;11317;51.072;17.036;2022-08-19T17:24:00;28.50;1.00
22299;DHT22;11317;51.072;17.036;2022-08-19T17:26:29;28.50;1.00
22299;DHT22;11317;51.072;17.036;2022-08-19T17:28:56;28.60;1.00
22299;DHT22;11317;51.072;17.036;2022-08-19T17:31:26;28.30;1.00
22299;DHT22;11317;51.072;17.036;2022-08-19T17:33:53;28.30;1.00
22299;DHT22;11317;51.072;17.036;2022-08-19T17:36:22;28.20;1.00
22299;DHT22;11317;51.072;17.036;2022-08-19T17:38:51;28.10;1.00
22299;DHT22;11317;51.072;17.036;2022-08-19T17:43:43;28.10;1.00
22299;DHT22;11317;51.072;17.036;2022-08-19T17:46:09;28.00;1.00
22299;DHT22;11317;51.072;17.036;2022-08-19T17:51:17;27.80;1.00
22299;DHT22;11317;51.072;17.036;2022-08-19T17:53:44;28.00;1.00
22299;DHT22;11317;51.072;17.036;2022-08-19T17:56:11;27.70;1.00
22299;DHT22;11317;51.072;17.036;2022-08-19T17:58:39;27.80;1.00
22299;DHT22;11317;51.072;17.036;2022-08-19T18:01:10;27.70;1.00
22299;DHT22;11317;51.072;17.036;2022-08-19T18:03:38;27.70;1.00
22299;DHT22;11317;51.072;17.036;2022-08-19T18:06:04;27.60;1.00
22299;DHT22;11317;51.072;17.036;2022-08-19T18:08:31;27.60;97.50
22299;DHT22;11317;51.072;17.036;2022-08-19T18:10:58;27.60;99.90
22299;DHT22;11317;51.072;17.036;2022-08-19T18:20:42;27.50;99.90
22299;DHT22;11317;51.072;17.036;2022-08-19T18:23:09;27.30;1.00
22299;DHT22;11317;51.072;17.036;2022-08-19T18:30:28;27.30;1.00
22299;DHT22;11317;51.072;17.036;2022-08-19T18:35:26;27.00;1.00
22299;DHT22;11317;51.072;17.036;2022-08-19T18:37:56;26.60;1.00
22299;DHT22;11317;51.072;17.036;2022-08-19T18:40:24;27.10;1.00
22299;DHT22;11317;51.072;17.036;2022-08-19T18:43:09;27.20;1.00
22299;DHT22;11317;51.072;17.036;2022-08-19T18:45:36;27.40;1.00
22299;DHT22;11317;51.072;17.036;2022-08-19T18:51:06;26.70;59.70
22299;DHT22;11317;51.072;17.036;2022-08-19T18:53:36;26.60;99.90
22299;DHT22;11317;51.072;17.036;2022-08-19T18:56:04;26.00;99.90
22299;DHT22;11317;51.072;17.036;2022-08-19T18:58:31;26.50;1.00
22299;DHT22;11317;51.072;17.036;2022-08-19T19:01:17;26.50;1.00
22299;DHT22;11317;51.072;17.036;2022-08-19T19:03:50;26.50;1.00
22299;DHT22;11317;51.072;17.036;2022-08-19T19:06:18;26.60;1.00
22299;DHT22;11317;51.072;17.036;2022-08-19T19:08:46;26.50;1.00
22299;DHT22;11317;51.072;17.036;2022-08-19T19:11:14;26.60;1.00
22299;DHT22;11317;51.072;17.036;2022-08-19T19:16:11;26.30;1.00
22299;DHT22;11317;51.072;17.036;2022-08-19T19:21:03;26.70;99.90
22299;DHT22;11317;51.072;17.036;2022-08-19T19:23:29;26.20;99.90
22299;DHT22;11317;51.072;17.036;2022-08-19T19:25:55;26.50;99.90
22299;DHT22;11317;51.072;17.036;2022-08-19T19:28:22;26.40;1.00
22299;DHT22;11317;51.072;17.036;2022-08-19T19:30:54;26.20;1.00
22299;DHT22;11317;51.072;17.036;2022-08-19T19:33:23;26.60;1.00
22299;DHT22;11317;51.072;17.036;2022-08-19T19:35:48;26.10;8.00
22299;DHT22;11317;51.072;17.036;2022-08-19T19:40:40;26.10;1.00
22299;DHT22;11317;51.072;17.036;2022-08-19T19:43:06;25.90;99.90
22299;DHT22;11317;51.072;17.036;2022-08-19T19:45:32;25.90;1.00
22299;DHT22;11317;51.072;17.036;2022-08-19T19:50:26;25.80;99.90
22299;DHT22;11317;51.072;17.036;2022-08-19T19:52:56;25.40;1.00
22299;DHT22;11317;51.072;17.036;2022-08-19T19:57:51;25.50;99.90
22299;DHT22;11317;51.072;17.036;2022-08-19T20:00:18;25.30;1.00
22299;DHT22;11317;51.072;17.036;2022-08-19T20:05:12;24.70;1.00
22299;DHT22;11317;51.072;17.036;2022-08-19T20:07:40;24.40;1.00
22299;DHT22;11317;51.072;17.036;2022-08-19T20:17:49;23.60;90.20
22299;DHT22;11317;51.072;17.036;2022-08-19T20:20:16;23.50;57.30
22299;DHT22;11317;51.072;17.036;2022-08-19T20:25:09;23.50;56.00
22299;DHT22;11317;51.072;17.036;2022-08-19T20:27:36;23.60;48.70
22299;DHT22;11317;51.072;17.036;2022-08-19T20:30:05;23.60;40.70
22299;DHT22;11317;51.072;17.036;2022-08-19T20:32:31;23.70;37.50
22299;DHT22;11317;51.072;17.036;2022-08-19T20:35:00;23.80;56.40
22299;DHT22;11317;51.072;17.036;2022-08-19T20:42:19;24.00;55.90
22299;DHT22;11317;51.072;17.036;2022-08-19T20:47:11;24.10;51.80
22299;DHT22;11317;51.072;17.036;2022-08-19T20:52:03;23.90;37.70
22299;DHT22;11317;51.072;17.036;2022-08-19T20:54:31;23.90;35.10
22299;DHT22;11317;51.072;17.036;2022-08-19T20:56:56;23.90;1.00
22299;DHT22;11317;51.072;17.036;2022-08-19T20:59:22;23.70;1.00
22299;DHT22;11317;51.072;17.036;2022-08-19T21:01:49;23.60;1.00
22299;DHT22;11317;51.072;17.036;2022-08-19T21:04:19;23.70;1.00
22299;DHT22;11317;51.072;17.036;2022-08-19T21:16:30;23.70;1.00
22299;DHT22;11317;51.072;17.036;2022-08-19T21:18:58;23.50;1.00
22299;DHT22;11317;51.072;17.036;2022-08-19T21:23:52;23.50;1.00
22299;DHT22;11317;51.072;17.036;2022-08-19T21:26:18;23.60;1.00
22299;DHT22;11317;51.072;17.036;2022-08-19T21:36:03;23.70;1.00